sensor_id;sensor_type;location;lat;lon;timestamp;P1;P2;P0
69205;PMS7003;56319;48.920;2.332;2023-07-31T00:00:39;3.25;1.25;1.00
69205;PMS7003;56319;48.920;2.332;2023-07-31T00:03:04;2.00;1.00;1.00
69205;PMS7003;56319;48.920;2.332;2023-07-31T00:05:30;1.75;1.75;1.75
69205;PMS7003;56319;48.920;2.332;2023-07-31T00:07:55;2.25;2.00;1.75
69205;PMS7003;56319;48.920;2.332;2023-07-31T00:10:21;1.75;1.75;1.00
69205;PMS7003;56319;48.920;2.332;2023-07-31T00:12:47;1.00;1.00;1.00
69205;PMS7003;56319;48.920;2.332;2023-07-31T00:15:13;2.00;2.00;2.00
69205;PMS7003;56319;48.920;2.332;2023-07-31T00:17:40;1.75;1.75;1.25
69205;PMS7003;56319;48.920;2.332;2023-07-31T00:20:05;3.75;1.25;1.00
69205;PMS7003;56319;48.920;2.332;2023-07-31T00:22:31;2.25;2.25;1.50
69205;PMS7003;56319;48.920;2.332;2023-07-31T00:24:57;2.00;2.00;1.00
69205;PMS7003;56319;48.920;2.332;2023-07-31T00:27:23;2.50;1.50;1.00
69205;PMS7003;56319;48.920;2.332;2023-07-31T00:29:48;0.00;0.00;0.00
69205;PMS7003;56319;48.920;2.332;2023-07-31T00:32:14;2.00;2.00;1.25
69205;PMS7003;56319;48.920;2.332;2023-07-31T00:34:39;1.75;1.75;1.75
69205;PMS7003;56319;48.920;2.332;2023-07-31T00:37:05;1.50;1.50;1.00
69205;PMS7003;56319;48.920;2.332;2023-07-31T00:39:31;0.00;0.00;0.00
69205;PMS7003;56319;48.920;2.332;2023-07-31T00:41:59;1.75;1.00;0.75
69205;PMS7003;56319;48.920;2.332;2023-07-31T00:44:24;4.00;1.50;1.00
69205;PMS7003;56319;48.920;2.332;2023-07-31T00:46:50;3.00;1.50;1.00
69205;PMS7003;56319;48.920;2.332;2023-07-31T00:49:15;2.00;2.00;1.00
69205;PMS7003;56319;48.920;2.332;2023-07-31T00:51:41;3.00;2.00;1.00
69205;PMS7003;56319;48.920;2.332;2023-07-31T00:54:07;2.75;2.00;1.50
69205;PMS7003;56319;48.920;2.332;2023-07-31T00:56:33;2.00;2.00;1.75
69205;PMS7003;56319;48.920;2.332;2023-07-31T00:58:58;2.00;2.00;1.00
69205;PMS7003;56319;48.920;2.332;2023-07-31T01:01:24;1.75;1.75;1.50
69205;PMS7003;56319;48.920;2.332;2023-07-31T01:03:50;3.75;2.00;2.00
69205;PMS7003;56319;48.920;2.332;2023-07-31T01:09:11;2.00;2.00;2.00
69205;PMS7003;56319;48.920;2.332;2023-07-31T01:12:02;3.00;2.00;1.00
69205;PMS7003;56319;48.920;2.332;2023-07-31T01:14:31;2.00;2.00;2.00
69205;PMS7003;56319;48.920;2.332;2023-07-31T01:16:56;0.50;0.50;0.50
69205;PMS7003;56319;48.920;2.332;2023-07-31T01:19:22;1.50;1.50;1.50
69205;PMS7003;56319;48.920;2.332;2023-07-31T01:25:00;4.00;3.00;2.00
69205;PMS7003;56319;48.920;2.332;2023-07-31T01:27:53;2.00;2.00;1.25
69205;PMS7003;56319;48.920;2.332;2023-07-31T01:30:29;3.00;3.00;2.50
69205;PMS7003;56319;48.920;2.332;2023-07-31T01:33:00;2.50;2.50;2.00
69205;PMS7003;56319;48.920;2.332;2023-07-31T01:35:32;4.50;3.00;2.00
69205;PMS7003;56319;48.920;2.332;2023-07-31T01:37:59;2.75;2.75;2.00
69205;PMS7003;56319;48.920;2.332;2023-07-31T01:40:24;2.00;2.00;1.25
69205;PMS7003;56319;48.920;2.332;2023-07-31T01:42:50;2.50;2.50;1.75
69205;PMS7003;56319;48.920;2.332;2023-07-31T01:45:15;2.00;2.00;1.00
69205;PMS7003;56319;48.920;2.332;2023-07-31T01:47:41;5.00;2.00;2.00
69205;PMS7003;56319;48.920;2.332;2023-07-31T01:50:06;4.25;3.00;2.25
69205;PMS7003;56319;48.920;2.332;2023-07-31T01:52:32;2.50;2.00;2.00
69205;PMS7003;56319;48.920;2.332;2023-07-31T01:54:57;2.25;2.25;2.00
69205;PMS7003;56319;48.920;2.332;2023-07-31T01:57:23;2.00;2.00;2.00
69205;PMS7003;56319;48.920;2.332;2023-07-31T01:59:48;2.00;2.00;1.75
69205;PMS7003;56319;48.920;2.332;2023-07-31T02:02:14;2.00;2.00;2.00
69205;PMS7003;56319;48.920;2.332;2023-07-31T02:04:39;2.00;2.00;1.50
69205;PMS7003;56319;48.920;2.332;2023-07-31T02:07:06;4.00;2.50;2.00
69205;PMS7003;56319;48.920;2.332;2023-07-31T02:09:31;4.50;3.00;2.00
69205;PMS7003;56319;48.920;2.332;2023-07-31T02:11:57;2.00;2.00;1.50
69205;PMS7003;56319;48.920;2.332;2023-07-31T02:14:22;2.00;2.00;1.25
69205;PMS7003;56319;48.920;2.332;2023-07-31T02:16:48;4.00;2.00;2.00
69205;PMS7003;56319;48.920;2.332;2023-07-31T02:19:13;5.00;3.00;2.00
69205;PMS7003;56319;48.920;2.332;2023-07-31T02:21:39;4.50;3.00;2.50
69205;PMS7003;56319;48.920;2.332;2023-07-31T02:24:04;4.00;3.00;2.00
69205;PMS7003;56319;48.920;2.332;2023-07-31T02:26:30;3.00;1.00;1.00
69205;PMS7003;56319;48.920;2.332;2023-07-31T02:28:55;2.25;2.00;1.00
69205;PMS7003;56319;48.920;2.332;2023-07-31T02:31:21;3.50;2.25;2.00
69205;PMS7003;56319;48.920;2.332;2023-07-31T02:33:46;5.00;3.25;3.00
69205;PMS7003;56319;48.920;2.332;2023-07-31T02:36:12;6.50;3.00;2.00
69205;PMS7003;56319;48.920;2.332;2023-07-31T02:38:37;2.00;2.00;2.00
69205;PMS7003;56319;48.920;2.332;2023-07-31T02:41:03;3.25;2.25;2.00
69205;PMS7003;56319;48.920;2.332;2023-07-31T02:43:28;1.75;1.00;1.00
69205;PMS7003;56319;48.920;2.332;2023-07-31T02:45:54;4.50;2.00;2.00
69205;PMS7003;56319;48.920;2.332;2023-07-31T02:48:19;1.50;1.50;1.25
69205;PMS7003;56319;48.920;2.332;2023-07-31T02:50:45;1.75;1.75;1.25
69205;PMS7003;56319;48.920;2.332;2023-07-31T02:53:11;3.50;2.75;2.00
69205;PMS7003;56319;48.920;2.332;2023-07-31T02:55:36;3.00;2.00;1.75
69205;PMS7003;56319;48.920;2.332;2023-07-31T02:58:02;1.25;1.00;1.00
69205;PMS7003;56319;48.920;2.332;2023-07-31T03:00:27;1.75;1.75;1.50
69205;PMS7003;56319;48.920;2.332;2023-07-31T03:02:53;5.00;1.75;1.50
69205;PMS7003;56319;48.920;2.332;2023-07-31T03:05:18;3.50;2.75;2.00
69205;PMS7003;56319;48.920;2.332;2023-07-31T03:07:44;1.00;1.00;1.00
69205;PMS7003;56319;48.920;2.332;2023-07-31T03:10:09;2.00;2.00;1.25
69205;PMS7003;56319;48.920;2.332;2023-07-31T03:12:35;1.75;1.75;1.50
69205;PMS7003;56319;48.920;2.332;2023-07-31T03:15:00;1.25;1.25;1.00
69205;PMS7003;56319;48.920;2.332;2023-07-31T03:17:26;1.00;1.00;1.00
69205;PMS7003;56319;48.920;2.332;2023-07-31T03:19:52;2.00;1.50;1.00
69205;PMS7003;56319;48.920;2.332;2023-07-31T03:22:17;2.75;2.75;2.00
69205;PMS7003;56319;48.920;2.332;2023-07-31T03:24:42;3.25;2.00;1.50
69205;PMS7003;56319;48.920;2.332;2023-07-31T03:27:08;1.75;1.75;1.25
69205;PMS7003;56319;48.920;2.332;2023-07-31T03:29:33;2.00;2.00;1.00
69205;PMS7003;56319;48.920;2.332;2023-07-31T03:31:59;3.00;2.00;1.00
69205;PMS7003;56319;48.920;2.332;2023-07-31T03:34:25;1.00;1.00;1.00
69205;PMS7003;56319;48.920;2.332;2023-07-31T03:36:50;3.00;1.75;1.00
69205;PMS7003;56319;48.920;2.332;2023-07-31T03:39:16;1.00;1.00;1.00
69205;PMS7003;56319;48.920;2.332;2023-07-31T03:41:41;1.00;1.00;1.00
69205;PMS7003;56319;48.920;2.332;2023-07-31T03:44:06;1.50;1.50;1.50
69205;PMS7003;56319;48.920;2.332;2023-07-31T03:46:32;1.50;1.50;1.50
69205;PMS7003;56319;48.920;2.332;2023-07-31T03:48:58;2.00;2.00;1.25
69205;PMS7003;56319;48.920;2.332;2023-07-31T03:51:24;1.75;1.75;1.75
69205;PMS7003;56319;48.920;2.332;2023-07-31T03:53:50;2.00;1.25;1.00
69205;PMS7003;56319;48.920;2.332;2023-07-31T03:56:15;1.75;1.75;1.50
69205;PMS7003;56319;48.920;2.332;2023-07-31T03:58:41;3.00;2.00;1.75
69205;PMS7003;56319;48.920;2.332;2023-07-31T04:01:06;2.75;2.00;1.00
69205;PMS7003;56319;48.920;2.332;2023-07-31T04:03:32;2.75;2.00;1.75
69205;PMS7003;56319;48.920;2.332;2023-07-31T04:05:57;2.00;1.00;1.00
69205;PMS7003;56319;48.920;2.332;2023-07-31T04:08:23;3.00;2.00;1.00
69205;PMS7003;56319;48.920;2.332;2023-07-31T04:10:49;1.00;1.00;0.50
69205;PMS7003;56319;48.920;2.332;2023-07-31T04:13:14;1.00;1.00;1.00
69205;PMS7003;56319;48.920;2.332;2023-07-31T04:15:40;3.50;1.00;1.00
69205;PMS7003;56319;48.920;2.332;2023-07-31T04:18:06;2.25;1.25;1.00
69205;PMS7003;56319;48.920;2.332;2023-07-31T04:20:32;1.00;1.00;1.00
69205;PMS7003;56319;48.920;2.332;2023-07-31T04:22:57;1.75;1.75;1.00
69205;PMS7003;56319;48.920;2.332;2023-07-31T04:25:23;2.00;1.00;1.00
69205;PMS7003;56319;48.920;2.332;2023-07-31T04:27:49;1.00;1.00;1.00
69205;PMS7003;56319;48.920;2.332;2023-07-31T04:30:14;2.50;1.25;1.00
69205;PMS7003;56319;48.920;2.332;2023-07-31T04:32:40;2.00;1.00;1.00
69205;PMS7003;56319;48.920;2.332;2023-07-31T04:35:05;1.00;1.00;1.00
69205;PMS7003;56319;48.920;2.332;2023-07-31T04:37:31;2.25;2.25;2.00
69205;PMS7003;56319;48.920;2.332;2023-07-31T04:39:57;3.00;1.00;1.00
69205;PMS7003;56319;48.920;2.332;2023-07-31T04:42:22;2.00;2.00;2.00
69205;PMS7003;56319;48.920;2.332;2023-07-31T04:44:48;4.00;1.50;1.00
69205;PMS7003;56319;48.920;2.332;2023-07-31T04:47:13;1.75;1.75;1.50
69205;PMS7003;56319;48.920;2.332;2023-07-31T04:49:39;3.00;2.25;2.00
69205;PMS7003;56319;48.920;2.332;2023-07-31T04:52:05;2.00;2.00;1.00
69205;PMS7003;56319;48.920;2.332;2023-07-31T04:54:30;1.25;0.25;0.25
69205;PMS7003;56319;48.920;2.332;2023-07-31T04:56:56;1.75;1.75;1.00
69205;PMS7003;56319;48.920;2.332;2023-07-31T04:59:21;2.25;2.25;2.00
69205;PMS7003;56319;48.920;2.332;2023-07-31T05:01:47;2.25;2.25;1.75
69205;PMS7003;56319;48.920;2.332;2023-07-31T05:04:13;2.75;1.50;1.00
69205;PMS7003;56319;48.920;2.332;2023-07-31T05:06:39;3.00;2.00;1.50
69205;PMS7003;56319;48.920;2.332;2023-07-31T05:09:05;1.25;1.00;1.00
69205;PMS7003;56319;48.920;2.332;2023-07-31T05:11:31;2.75;2.75;2.00
69205;PMS7003;56319;48.920;2.332;2023-07-31T05:13:56;3.50;2.00;1.25
69205;PMS7003;56319;48.920;2.332;2023-07-31T05:16:22;2.00;2.00;1.00
69205;PMS7003;56319;48.920;2.332;2023-07-31T05:18:47;1.00;1.00;1.00
69205;PMS7003;56319;48.920;2.332;2023-07-31T05:21:13;2.50;1.00;1.00
69205;PMS7003;56319;48.920;2.332;2023-07-31T05:23:38;1.75;1.75;1.50
69205;PMS7003;56319;48.920;2.332;2023-07-31T05:26:04;3.00;2.00;2.00
69205;PMS7003;56319;48.920;2.332;2023-07-31T05:28:30;2.00;2.00;1.25
69205;PMS7003;56319;48.920;2.332;2023-07-31T05:30:59;3.00;1.50;1.25
69205;PMS7003;56319;48.920;2.332;2023-07-31T05:33:26;2.00;2.00;1.50
69205;PMS7003;56319;48.920;2.332;2023-07-31T05:35:51;2.00;2.00;1.00
69205;PMS7003;56319;48.920;2.332;2023-07-31T05:38:17;1.75;1.75;1.25
69205;PMS7003;56319;48.920;2.332;2023-07-31T05:40:43;3.00;3.00;2.00
69205;PMS7003;56319;48.920;2.332;2023-07-31T05:43:08;3.00;3.00;2.25
69205;PMS7003;56319;48.920;2.332;2023-07-31T05:45:34;3.50;3.25;3.00
69205;PMS7003;56319;48.920;2.332;2023-07-31T05:48:00;5.00;4.00;3.00
69205;PMS7003;56319;48.920;2.332;2023-07-31T05:50:25;3.50;3.00;2.50
69205;PMS7003;56319;48.920;2.332;2023-07-31T05:52:51;3.75;3.75;3.25
69205;PMS7003;56319;48.920;2.332;2023-07-31T05:55:17;4.25;4.00;3.00
69205;PMS7003;56319;48.920;2.332;2023-07-31T05:57:42;4.50;4.50;3.00
69205;PMS7003;56319;48.920;2.332;2023-07-31T06:00:11;4.75;4.00;3.00
69205;PMS7003;56319;48.920;2.332;2023-07-31T06:02:37;4.00;4.00;3.00
69205;PMS7003;56319;48.920;2.332;2023-07-31T06:05:03;4.25;4.00;3.00
69205;PMS7003;56319;48.920;2.332;2023-07-31T06:07:31;5.00;4.25;3.25
69205;PMS7003;56319;48.920;2.332;2023-07-31T06:09:57;6.00;4.50;3.00
69205;PMS7003;56319;48.920;2.332;2023-07-31T06:12:28;4.25;4.25;3.00
69205;PMS7003;56319;48.920;2.332;2023-07-31T06:14:54;3.75;3.75;3.50
69205;PMS7003;56319;48.920;2.332;2023-07-31T06:17:19;4.50;3.25;3.00
69205;PMS7003;56319;48.920;2.332;2023-07-31T06:19:45;3.00;3.00;2.50
69205;PMS7003;56319;48.920;2.332;2023-07-31T06:22:10;4.75;3.75;3.00
69205;PMS7003;56319;48.920;2.332;2023-07-31T06:24:36;4.00;4.00;3.50
69205;PMS7003;56319;48.920;2.332;2023-07-31T06:27:01;4.50;3.25;3.00
69205;PMS7003;56319;48.920;2.332;2023-07-31T06:29:29;5.00;5.00;3.25
69205;PMS7003;56319;48.920;2.332;2023-07-31T06:31:55;6.00;4.75;3.75
69205;PMS7003;56319;48.920;2.332;2023-07-31T06:34:20;5.00;3.00;3.00
69205;PMS7003;56319;48.920;2.332;2023-07-31T06:36:46;3.00;3.00;3.00
69205;PMS7003;56319;48.920;2.332;2023-07-31T06:39:11;5.50;5.00;4.00
69205;PMS7003;56319;48.920;2.332;2023-07-31T06:41:37;3.00;3.00;2.50
69205;PMS7003;56319;48.920;2.332;2023-07-31T06:44:03;4.75;3.00;3.00
69205;PMS7003;56319;48.920;2.332;2023-07-31T06:46:29;4.00;4.00;3.00
69205;PMS7003;56319;48.920;2.332;2023-07-31T06:48:54;3.00;3.00;3.00
69205;PMS7003;56319;48.920;2.332;2023-07-31T06:51:20;7.50;5.25;4.25
69205;PMS7003;56319;48.920;2.332;2023-07-31T06:53:45;5.25;4.00;3.00
69205;PMS7003;56319;48.920;2.332;2023-07-31T06:56:11;4.75;4.00;3.50
69205;PMS7003;56319;48.920;2.332;2023-07-31T06:58:37;4.00;4.00;3.00
69205;PMS7003;56319;48.920;2.332;2023-07-31T07:01:03;3.00;3.00;2.75
69205;PMS7003;56319;48.920;2.332;2023-07-31T07:03:28;4.50;3.00;2.50
69205;PMS7003;56319;48.920;2.332;2023-07-31T07:05:54;4.75;4.00;3.50
69205;PMS7003;56319;48.920;2.332;2023-07-31T07:08:19;2.25;2.00;2.00
69205;PMS7003;56319;48.920;2.332;2023-07-31T07:10:45;4.25;4.00;3.00
69205;PMS7003;56319;48.920;2.332;2023-07-31T07:13:11;6.25;4.25;3.25
69205;PMS7003;56319;48.920;2.332;2023-07-31T07:15:37;4.75;4.75;3.25
69205;PMS7003;56319;48.920;2.332;2023-07-31T07:18:03;4.00;3.75;3.00
69205;PMS7003;56319;48.920;2.332;2023-07-31T07:20:28;5.25;4.00;3.00
69205;PMS7003;56319;48.920;2.332;2023-07-31T07:22:54;5.50;4.00;3.00
69205;PMS7003;56319;48.920;2.332;2023-07-31T07:25:19;2.75;2.50;2.00
69205;PMS7003;56319;48.920;2.332;2023-07-31T07:27:45;4.25;4.25;3.25
69205;PMS7003;56319;48.920;2.332;2023-07-31T07:30:11;4.75;3.75;3.00
69205;PMS7003;56319;48.920;2.332;2023-07-31T07:32:36;4.25;3.50;2.50
69205;PMS7003;56319;48.920;2.332;2023-07-31T07:35:02;5.25;4.25;3.75
69205;PMS7003;56319;48.920;2.332;2023-07-31T07:37:28;5.50;3.00;3.00
69205;PMS7003;56319;48.920;2.332;2023-07-31T07:39:53;7.25;4.50;3.00
69205;PMS7003;56319;48.920;2.332;2023-07-31T07:42:19;3.00;3.00;2.25
69205;PMS7003;56319;48.920;2.332;2023-07-31T07:44:44;5.25;5.25;3.75
69205;PMS7003;56319;48.920;2.332;2023-07-31T07:47:10;5.00;4.50;3.00
69205;PMS7003;56319;48.920;2.332;2023-07-31T07:49:35;3.00;3.00;2.25
69205;PMS7003;56319;48.920;2.332;2023-07-31T07:52:01;4.00;3.00;2.00
69205;PMS7003;56319;48.920;2.332;2023-07-31T07:54:28;3.25;3.25;2.75
69205;PMS7003;56319;48.920;2.332;2023-07-31T07:56:53;3.25;3.25;2.75
69205;PMS7003;56319;48.920;2.332;2023-07-31T07:59:19;5.50;4.50;3.75
69205;PMS7003;56319;48.920;2.332;2023-07-31T08:01:45;4.25;4.00;3.00
69205;PMS7003;56319;48.920;2.332;2023-07-31T08:04:11;6.50;5.00;3.25
69205;PMS7003;56319;48.920;2.332;2023-07-31T08:06:36;4.75;4.00;3.00
69205;PMS7003;56319;48.920;2.332;2023-07-31T08:09:02;3.50;3.50;2.75
69205;PMS7003;56319;48.920;2.332;2023-07-31T08:11:31;4.50;4.00;4.00
69205;PMS7003;56319;48.920;2.332;2023-07-31T08:13:58;4.25;4.25;3.50
69205;PMS7003;56319;48.920;2.332;2023-07-31T08:16:24;4.00;4.00;3.00
69205;PMS7003;56319;48.920;2.332;2023-07-31T08:18:49;3.50;3.50;2.50
69205;PMS7003;56319;48.920;2.332;2023-07-31T08:21:15;6.75;4.00;3.25
69205;PMS7003;56319;48.920;2.332;2023-07-31T08:23:40;4.25;3.00;3.00
69205;PMS7003;56319;48.920;2.332;2023-07-31T08:26:06;6.00;5.00;4.00
69205;PMS7003;56319;48.920;2.332;2023-07-31T08:28:32;5.00;4.00;3.25
69205;PMS7003;56319;48.920;2.332;2023-07-31T08:30:57;4.00;4.00;3.00
69205;PMS7003;56319;48.920;2.332;2023-07-31T08:33:23;4.75;4.75;4.00
69205;PMS7003;56319;48.920;2.332;2023-07-31T08:35:48;3.00;3.00;3.00
69205;PMS7003;56319;48.920;2.332;2023-07-31T08:38:14;3.75;3.75;3.00
69205;PMS7003;56319;48.920;2.332;2023-07-31T08:40:39;5.00;3.75;3.00
69205;PMS7003;56319;48.920;2.332;2023-07-31T08:43:05;4.00;2.75;1.75
69205;PMS7003;56319;48.920;2.332;2023-07-31T08:45:32;4.75;4.75;3.50
69205;PMS7003;56319;48.920;2.332;2023-07-31T08:47:58;5.75;4.25;3.50
69205;PMS7003;56319;48.920;2.332;2023-07-31T08:50:24;3.50;3.50;2.75
69205;PMS7003;56319;48.920;2.332;2023-07-31T08:52:50;5.25;5.25;3.25
69205;PMS7003;56319;48.920;2.332;2023-07-31T08:55:17;4.00;4.00;3.00
69205;PMS7003;56319;48.920;2.332;2023-07-31T08:57:48;5.25;4.00;3.25
69205;PMS7003;56319;48.920;2.332;2023-07-31T09:00:16;4.25;4.25;3.00
69205;PMS7003;56319;48.920;2.332;2023-07-31T09:02:45;3.00;3.00;3.00
69205;PMS7003;56319;48.920;2.332;2023-07-31T09:05:13;7.25;4.00;3.75
69205;PMS7003;56319;48.920;2.332;2023-07-31T09:07:41;4.25;3.00;2.25
69205;PMS7003;56319;48.920;2.332;2023-07-31T09:10:11;5.50;5.00;3.25
69205;PMS7003;56319;48.920;2.332;2023-07-31T09:12:37;3.75;3.75;3.25
69205;PMS7003;56319;48.920;2.332;2023-07-31T09:15:04;4.00;3.25;3.00
69205;PMS7003;56319;48.920;2.332;2023-07-31T09:17:32;4.00;3.25;2.75
69205;PMS7003;56319;48.920;2.332;2023-07-31T09:20:07;4.00;3.75;3.00
69205;PMS7003;56319;48.920;2.332;2023-07-31T09:22:42;4.00;4.00;2.75
69205;PMS7003;56319;48.920;2.332;2023-07-31T09:27:54;4.50;2.25;2.00
69205;PMS7003;56319;48.920;2.332;2023-07-31T09:30:23;4.00;4.00;3.00
69205;PMS7003;56319;48.920;2.332;2023-07-31T09:32:50;4.50;3.25;2.25
69205;PMS7003;56319;48.920;2.332;2023-07-31T09:35:19;4.00;3.00;2.75
69205;PMS7003;56319;48.920;2.332;2023-07-31T09:37:48;4.25;4.25;3.00
69205;PMS7003;56319;48.920;2.332;2023-07-31T09:43:04;4.00;4.00;3.00
69205;PMS7003;56319;48.920;2.332;2023-07-31T09:45:34;6.00;4.25;3.25
69205;PMS7003;56319;48.920;2.332;2023-07-31T09:48:01;6.75;4.00;3.25
69205;PMS7003;56319;48.920;2.332;2023-07-31T09:50:27;4.50;3.50;3.25
69205;PMS7003;56319;48.920;2.332;2023-07-31T09:52:54;4.75;3.75;2.00
69205;PMS7003;56319;48.920;2.332;2023-07-31T09:55:19;4.00;4.00;3.00
69205;PMS7003;56319;48.920;2.332;2023-07-31T09:57:46;4.25;3.75;2.75
69205;PMS7003;56319;48.920;2.332;2023-07-31T10:00:13;3.00;3.00;2.25
69205;PMS7003;56319;48.920;2.332;2023-07-31T10:02:41;4.00;4.00;3.00
69205;PMS7003;56319;48.920;2.332;2023-07-31T10:05:09;3.00;3.00;2.00
69205;PMS7003;56319;48.920;2.332;2023-07-31T10:07:39;3.00;3.00;3.00
69205;PMS7003;56319;48.920;2.332;2023-07-31T10:10:08;4.00;4.00;3.00
69205;PMS7003;56319;48.920;2.332;2023-07-31T10:12:34;4.00;3.00;2.00
69205;PMS7003;56319;48.920;2.332;2023-07-31T10:15:01;4.00;4.00;3.00
69205;PMS7003;56319;48.920;2.332;2023-07-31T10:17:27;5.75;3.00;2.75
69205;PMS7003;56319;48.920;2.332;2023-07-31T10:19:55;7.25;3.50;2.75
69205;PMS7003;56319;48.920;2.332;2023-07-31T10:22:23;3.00;3.00;2.50
69205;PMS7003;56319;48.920;2.332;2023-07-31T10:24:49;3.25;3.25;3.00
69205;PMS7003;56319;48.920;2.332;2023-07-31T10:27:15;4.00;2.75;2.25
69205;PMS7003;56319;48.920;2.332;2023-07-31T10:29:41;5.00;3.00;3.00
69205;PMS7003;56319;48.920;2.332;2023-07-31T10:32:09;5.25;4.00;3.00
69205;PMS7003;56319;48.920;2.332;2023-07-31T10:34:37;2.75;2.50;2.25
69205;PMS7003;56319;48.920;2.332;2023-07-31T10:39:55;3.00;3.00;2.25
69205;PMS7003;56319;48.920;2.332;2023-07-31T10:42:29;2.75;2.50;2.00
69205;PMS7003;56319;48.920;2.332;2023-07-31T10:44:57;3.25;3.25;3.00
69205;PMS7003;56319;48.920;2.332;2023-07-31T10:47:24;4.75;3.00;2.00
69205;PMS7003;56319;48.920;2.332;2023-07-31T10:49:50;5.00;4.00;2.50
69205;PMS7003;56319;48.920;2.332;2023-07-31T10:52:19;4.00;3.00;2.00
69205;PMS7003;56319;48.920;2.332;2023-07-31T10:54:48;3.00;3.00;2.50
69205;PMS7003;56319;48.920;2.332;2023-07-31T10:57:18;3.75;3.75;2.75
69205;PMS7003;56319;48.920;2.332;2023-07-31T10:59:45;3.00;3.00;2.00
69205;PMS7003;56319;48.920;2.332;2023-07-31T11:02:23;2.25;2.25;2.00
69205;PMS7003;56319;48.920;2.332;2023-07-31T11:07:53;3.00;3.00;2.00
69205;PMS7003;56319;48.920;2.332;2023-07-31T11:10:22;3.00;3.00;3.00
69205;PMS7003;56319;48.920;2.332;2023-07-31T11:12:48;3.00;3.00;2.50
69205;PMS7003;56319;48.920;2.332;2023-07-31T11:15:14;3.00;3.00;2.00
69205;PMS7003;56319;48.920;2.332;2023-07-31T11:17:40;5.25;3.25;3.00
69205;PMS7003;56319;48.920;2.332;2023-07-31T11:20:06;2.50;2.50;2.00
69205;PMS7003;56319;48.920;2.332;2023-07-31T11:22:34;3.50;3.00;2.00
69205;PMS7003;56319;48.920;2.332;2023-07-31T11:25:01;4.25;2.75;2.00
69205;PMS7003;56319;48.920;2.332;2023-07-31T11:27:29;4.25;3.00;2.00
69205;PMS7003;56319;48.920;2.332;2023-07-31T11:30:00;2.75;2.75;2.00
69205;PMS7003;56319;48.920;2.332;2023-07-31T11:32:27;3.50;3.50;2.50
69205;PMS7003;56319;48.920;2.332;2023-07-31T11:34:53;4.00;3.00;3.00
69205;PMS7003;56319;48.920;2.332;2023-07-31T11:37:19;3.75;2.00;2.00
69205;PMS7003;56319;48.920;2.332;2023-07-31T11:39:58;5.25;3.25;2.75
69205;PMS7003;56319;48.920;2.332;2023-07-31T11:42:24;3.25;3.00;2.00
69205;PMS7003;56319;48.920;2.332;2023-07-31T11:44:50;4.00;3.75;2.75
69205;PMS7003;56319;48.920;2.332;2023-07-31T11:47:16;5.25;3.50;2.25
69205;PMS7003;56319;48.920;2.332;2023-07-31T11:49:41;4.25;4.00;3.00
69205;PMS7003;56319;48.920;2.332;2023-07-31T11:52:08;3.25;3.25;2.25
69205;PMS7003;56319;48.920;2.332;2023-07-31T11:54:37;3.00;3.00;3.00
69205;PMS7003;56319;48.920;2.332;2023-07-31T11:57:03;2.00;2.00;2.00
69205;PMS7003;56319;48.920;2.332;2023-07-31T11:59:30;5.00;4.00;3.00
69205;PMS7003;56319;48.920;2.332;2023-07-31T12:01:56;5.00;3.75;3.00
69205;PMS7003;56319;48.920;2.332;2023-07-31T12:04:21;3.00;3.00;2.00
69205;PMS7003;56319;48.920;2.332;2023-07-31T12:06:49;5.25;3.00;2.50
69205;PMS7003;56319;48.920;2.332;2023-07-31T12:09:17;5.00;4.00;3.00
69205;PMS7003;56319;48.920;2.332;2023-07-31T12:11:43;6.50;3.00;3.00
69205;PMS7003;56319;48.920;2.332;2023-07-31T12:14:19;3.50;3.25;3.00
69205;PMS7003;56319;48.920;2.332;2023-07-31T12:16:46;5.00;3.50;3.00
69205;PMS7003;56319;48.920;2.332;2023-07-31T12:19:12;4.50;3.25;2.75
69205;PMS7003;56319;48.920;2.332;2023-07-31T12:21:37;3.25;3.25;3.00
69205;PMS7003;56319;48.920;2.332;2023-07-31T12:24:03;3.25;3.25;2.00
69205;PMS7003;56319;48.920;2.332;2023-07-31T12:26:34;2.25;2.25;2.00
69205;PMS7003;56319;48.920;2.332;2023-07-31T12:28:59;2.25;2.25;2.00
69205;PMS7003;56319;48.920;2.332;2023-07-31T12:31:27;2.00;2.00;1.00
69205;PMS7003;56319;48.920;2.332;2023-07-31T12:33:54;3.25;3.00;2.00
69205;PMS7003;56319;48.920;2.332;2023-07-31T12:36:23;4.25;4.25;2.25
69205;PMS7003;56319;48.920;2.332;2023-07-31T12:38:49;4.00;2.25;2.00
69205;PMS7003;56319;48.920;2.332;2023-07-31T12:41:16;2.00;2.00;2.00
69205;PMS7003;56319;48.920;2.332;2023-07-31T12:43:42;3.00;3.00;2.00
69205;PMS7003;56319;48.920;2.332;2023-07-31T12:46:09;4.00;4.00;3.00
69205;PMS7003;56319;48.920;2.332;2023-07-31T12:48:34;4.00;3.00;3.00
69205;PMS7003;56319;48.920;2.332;2023-07-31T12:51:01;3.00;3.00;2.75
69205;PMS7003;56319;48.920;2.332;2023-07-31T12:53:27;4.25;3.00;2.50
69205;PMS7003;56319;48.920;2.332;2023-07-31T12:55:54;2.50;2.50;2.00
69205;PMS7003;56319;48.920;2.332;2023-07-31T12:58:20;2.00;2.00;2.00
69205;PMS7003;56319;48.920;2.332;2023-07-31T13:00:45;4.75;3.00;2.00
69205;PMS7003;56319;48.920;2.332;2023-07-31T13:03:11;4.25;3.25;2.00
69205;PMS7003;56319;48.920;2.332;2023-07-31T13:05:36;0.00;0.00;0.00
69205;PMS7003;56319;48.920;2.332;2023-07-31T13:08:02;3.25;3.00;3.00
69205;PMS7003;56319;48.920;2.332;2023-07-31T13:10:27;4.00;3.00;2.00
69205;PMS7003;56319;48.920;2.332;2023-07-31T13:12:54;3.00;3.00;2.00
69205;PMS7003;56319;48.920;2.332;2023-07-31T13:15:19;3.50;2.00;2.00
69205;PMS7003;56319;48.920;2.332;2023-07-31T13:17:45;3.25;3.00;2.25
69205;PMS7003;56319;48.920;2.332;2023-07-31T13:20:11;3.50;2.00;1.75
69205;PMS7003;56319;48.920;2.332;2023-07-31T13:22:37;2.25;2.25;2.25
69205;PMS7003;56319;48.920;2.332;2023-07-31T13:25:03;3.25;2.50;2.00
69205;PMS7003;56319;48.920;2.332;2023-07-31T13:27:29;5.00;3.00;2.00
69205;PMS7003;56319;48.920;2.332;2023-07-31T13:29:54;2.00;2.00;2.00
69205;PMS7003;56319;48.920;2.332;2023-07-31T13:32:20;3.00;1.50;1.25
69205;PMS7003;56319;48.920;2.332;2023-07-31T13:34:46;2.00;2.00;1.00
69205;PMS7003;56319;48.920;2.332;2023-07-31T13:37:13;0.25;0.25;0.00
69205;PMS7003;56319;48.920;2.332;2023-07-31T13:39:39;3.25;3.25;2.25
69205;PMS7003;56319;48.920;2.332;2023-07-31T13:42:05;4.50;3.25;3.00
69205;PMS7003;56319;48.920;2.332;2023-07-31T13:44:34;2.00;2.00;2.00
69205;PMS7003;56319;48.920;2.332;2023-07-31T13:47:00;2.25;2.25;2.00
69205;PMS7003;56319;48.920;2.332;2023-07-31T13:49:26;3.00;2.00;2.00
69205;PMS7003;56319;48.920;2.332;2023-07-31T13:51:52;3.25;3.00;2.75
69205;PMS7003;56319;48.920;2.332;2023-07-31T13:54:18;5.50;2.50;2.00
69205;PMS7003;56319;48.920;2.332;2023-07-31T13:56:43;4.00;3.00;2.75
69205;PMS7003;56319;48.920;2.332;2023-07-31T13:59:10;2.00;2.00;1.75
69205;PMS7003;56319;48.920;2.332;2023-07-31T14:01:36;2.25;2.25;2.00
69205;PMS7003;56319;48.920;2.332;2023-07-31T14:04:01;3.00;3.00;2.00
69205;PMS7003;56319;48.920;2.332;2023-07-31T14:06:27;2.50;2.50;2.00
69205;PMS7003;56319;48.920;2.332;2023-07-31T14:08:53;2.50;2.00;2.00
69205;PMS7003;56319;48.920;2.332;2023-07-31T14:11:18;2.25;2.00;2.00
69205;PMS7003;56319;48.920;2.332;2023-07-31T14:13:44;2.00;2.00;2.00
69205;PMS7003;56319;48.920;2.332;2023-07-31T14:16:09;2.25;2.25;2.00
69205;PMS7003;56319;48.920;2.332;2023-07-31T14:18:35;2.00;2.00;1.75
69205;PMS7003;56319;48.920;2.332;2023-07-31T14:21:01;3.00;3.00;2.00
69205;PMS7003;56319;48.920;2.332;2023-07-31T14:23:26;2.00;2.00;2.00
69205;PMS7003;56319;48.920;2.332;2023-07-31T14:25:52;3.00;2.50;2.00
69205;PMS7003;56319;48.920;2.332;2023-07-31T14:28:17;2.75;2.00;2.00
69205;PMS7003;56319;48.920;2.332;2023-07-31T14:30:43;3.00;1.50;1.00
69205;PMS7003;56319;48.920;2.332;2023-07-31T14:33:08;1.50;1.50;1.50
69205;PMS7003;56319;48.920;2.332;2023-07-31T14:35:34;2.00;2.00;2.00